createdAt,value
2022-07-26T00:01:32.032Z,96.00
2022-07-26T00:03:59.855Z,95.40
2022-07-26T00:06:26.592Z,96.10
2022-07-26T00:08:53.634Z,96.20
2022-07-26T00:11:20.784Z,96.10
2022-07-26T00:13:47.714Z,96.10
2022-07-26T00:16:14.836Z,96.80
2022-07-26T00:18:41.604Z,96.50
2022-07-26T00:21:08.362Z,96.30
2022-07-26T00:23:35.416Z,96.10
2022-07-26T00:26:02.081Z,96.30
2022-07-26T00:28:28.606Z,95.90
2022-07-26T00:30:55.177Z,95.40
2022-07-26T00:33:21.722Z,95.70
2022-07-26T00:35:48.296Z,95.40
2022-07-26T00:38:14.852Z,95.40
2022-07-26T00:40:41.587Z,95.20
2022-07-26T00:43:08.171Z,94.80
2022-07-26T00:45:34.911Z,94.90
2022-07-26T00:48:01.622Z,95.10
2022-07-26T00:50:28.249Z,95.20
2022-07-26T00:52:55.098Z,95.00
2022-07-26T00:55:21.907Z,95.30
2022-07-26T00:57:48.819Z,95.60
2022-07-26T01:00:18.566Z,95.30
2022-07-26T01:02:45.634Z,95.50
2022-07-26T01:05:12.530Z,95.40
2022-07-26T01:07:39.949Z,95.50
2022-07-26T01:10:11.964Z,95.70
2022-07-26T01:12:39.788Z,95.70
2022-07-26T01:15:07.136Z,95.70
2022-07-26T01:17:36.284Z,96.00
2022-07-26T01:20:08.264Z,96.10
2022-07-26T01:22:35.369Z,96.00
2022-07-26T01:25:01.996Z,96.30
2022-07-26T01:27:33.821Z,96.30
2022-07-26T01:30:01.009Z,96.30
2022-07-26T01:32:27.596Z,96.60
2022-07-26T01:34:54.329Z,97.00
2022-07-26T01:37:20.894Z,97.30
2022-07-26T01:39:47.506Z,97.20
2022-07-26T01:42:14.065Z,97.40
2022-07-26T01:44:40.582Z,97.60
2022-07-26T01:47:07.276Z,98.10
2022-07-26T01:49:33.955Z,97.90
2022-07-26T01:52:00.565Z,98.30
2022-07-26T01:54:27.571Z,98.50
2022-07-26T01:56:54.243Z,98.70
2022-07-26T01:59:20.931Z,98.80
2022-07-26T02:01:47.595Z,98.30
2022-07-26T02:04:34.212Z,98.40
2022-07-26T02:07:00.817Z,98.30
2022-07-26T02:09:38.005Z,98.20
2022-07-26T02:12:06.553Z,98.10
2022-07-26T02:14:33.165Z,98.50
2022-07-26T02:17:00.150Z,98.10
2022-07-26T02:19:28.605Z,98.20
2022-07-26T02:21:55.553Z,97.10
2022-07-26T02:24:22.293Z,97.50
2022-07-26T02:26:48.878Z,97.00
2022-07-26T02:29:15.738Z,96.90
2022-07-26T02:31:42.325Z,97.10
2022-07-26T02:34:15.259Z,97.60
2022-07-26T02:36:41.866Z,97.50
2022-07-26T02:39:08.447Z,98.00
2022-07-26T02:41:34.996Z,98.50
2022-07-26T02:44:01.649Z,98.50
2022-07-26T02:46:28.317Z,98.50
2022-07-26T02:48:55.217Z,98.60
2022-07-26T02:51:21.836Z,98.60
2022-07-26T02:53:48.405Z,98.30
2022-07-26T02:56:15.137Z,98.20
2022-07-26T02:58:41.653Z,97.70
2022-07-26T03:01:08.508Z,98.10
2022-07-26T03:03:36.687Z,97.60
2022-07-26T03:06:05.029Z,97.90
2022-07-26T03:08:31.768Z,97.60
2022-07-26T03:10:59.862Z,97.40
2022-07-26T03:13:26.557Z,97.50
2022-07-26T03:15:53.208Z,97.80
2022-07-26T03:18:19.954Z,97.80
2022-07-26T03:20:46.472Z,98.00
2022-07-26T03:23:13.032Z,98.30
2022-07-26T03:25:39.633Z,98.80
2022-07-26T03:28:06.173Z,99.00
2022-07-26T03:30:32.829Z,99.20
2022-07-26T03:32:59.491Z,99.60
2022-07-26T03:35:26.121Z,99.90
2022-07-26T03:37:52.764Z,99.90
2022-07-26T03:40:19.910Z,99.90
2022-07-26T03:42:48.153Z,99.90
2022-07-26T03:45:15.738Z,99.90
2022-07-26T03:47:42.730Z,99.90
2022-07-26T03:50:10.829Z,99.90
2022-07-26T03:52:37.446Z,99.90
2022-07-26T03:55:23.176Z,99.90
2022-07-26T03:57:49.783Z,99.90
2022-07-26T04:00:38.172Z,99.90
2022-07-26T04:03:04.818Z,99.90
2022-07-26T04:05:31.412Z,99.90
2022-07-26T04:07:57.981Z,99.90
2022-07-26T04:10:25.894Z,99.90
2022-07-26T04:12:52.459Z,99.90
2022-07-26T04:15:21.051Z,99.90
2022-07-26T04:17:50.733Z,99.90
2022-07-26T04:20:17.349Z,99.90
2022-07-26T04:22:44.835Z,99.90
2022-07-26T04:25:11.484Z,99.90
2022-07-26T04:27:38.260Z,99.90
2022-07-26T04:30:08.533Z,99.90
2022-07-26T04:32:37.888Z,99.90
2022-07-26T04:35:04.860Z,99.90
2022-07-26T04:37:34.563Z,99.90
2022-07-26T04:40:01.212Z,99.90
2022-07-26T04:42:27.786Z,99.90
2022-07-26T04:44:54.362Z,99.90
2022-07-26T04:47:20.943Z,99.90
2022-07-26T04:49:47.538Z,99.90
2022-07-26T04:52:14.084Z,99.90
2022-07-26T04:54:40.660Z,99.90
2022-07-26T04:57:07.240Z,99.90
2022-07-26T04:59:34.324Z,99.90
2022-07-26T05:02:01.051Z,99.90
2022-07-26T05:04:27.783Z,99.90
2022-07-26T05:06:54.387Z,99.90
2022-07-26T05:09:20.977Z,99.90
2022-07-26T05:11:47.492Z,99.90
2022-07-26T05:14:14.081Z,99.90
2022-07-26T05:16:44.311Z,99.90
2022-07-26T05:19:11.451Z,99.90
2022-07-26T05:21:38.013Z,99.90
2022-07-26T05:24:07.524Z,99.90
2022-07-26T05:26:34.680Z,99.90
2022-07-26T05:29:01.350Z,99.90
2022-07-26T05:31:27.998Z,99.90
2022-07-26T05:33:55.215Z,99.90
2022-07-26T05:36:21.937Z,99.90
2022-07-26T05:38:48.540Z,99.90
2022-07-26T05:41:15.099Z,99.90
2022-07-26T05:43:42.177Z,99.90
2022-07-26T05:46:10.179Z,99.90
2022-07-26T05:48:37.177Z,99.90
2022-07-26T05:51:04.010Z,99.90
2022-07-26T05:53:30.656Z,99.90
2022-07-26T05:55:57.210Z,99.90
2022-07-26T05:58:23.869Z,99.90
2022-07-26T06:00:50.448Z,99.90
2022-07-26T06:03:23.280Z,99.90
2022-07-26T06:05:51.484Z,99.90
2022-07-26T06:08:18.575Z,99.30
2022-07-26T06:10:46.226Z,98.30
2022-07-26T06:13:12.994Z,98.10
2022-07-26T06:15:39.715Z,98.10
2022-07-26T06:18:06.826Z,97.70
2022-07-26T06:20:33.578Z,97.80
2022-07-26T06:23:00.635Z,97.60
2022-07-26T06:25:27.646Z,97.20
2022-07-26T06:27:54.241Z,97.60
2022-07-26T06:30:20.917Z,97.70
2022-07-26T06:32:47.517Z,97.40
2022-07-26T06:35:15.074Z,97.70
2022-07-26T06:37:42.888Z,97.80
2022-07-26T06:40:10.765Z,97.90
2022-07-26T06:42:38.088Z,97.90
2022-07-26T06:45:06.006Z,98.00
2022-07-26T06:47:33.119Z,98.10
2022-07-26T06:49:59.649Z,97.90
2022-07-26T06:52:26.277Z,98.20
2022-07-26T06:54:52.917Z,98.00
2022-07-26T06:57:19.472Z,97.90
2022-07-26T06:59:46.020Z,97.70
2022-07-26T07:02:12.585Z,97.60
2022-07-26T07:04:39.184Z,97.50
2022-07-26T07:07:06.513Z,97.00
2022-07-26T07:09:34.355Z,97.20
2022-07-26T07:12:09.944Z,97.00
2022-07-26T07:14:37.740Z,96.60
2022-07-26T07:17:12.229Z,95.80
2022-07-26T07:19:40.633Z,95.50
2022-07-26T07:22:11.387Z,95.70
2022-07-26T07:24:38.828Z,95.50
2022-07-26T07:27:06.202Z,95.10
2022-07-26T07:29:33.744Z,95.00
2022-07-26T07:32:00.691Z,94.30
2022-07-26T07:34:30.063Z,94.20
2022-07-26T07:36:56.746Z,93.80
2022-07-26T07:39:24.344Z,92.80
2022-07-26T07:42:01.026Z,92.70
2022-07-26T07:44:27.586Z,92.70
2022-07-26T07:46:54.197Z,93.20
2022-07-26T07:49:22.082Z,93.20
2022-07-26T07:51:48.800Z,93.10
2022-07-26T07:54:15.977Z,92.70
2022-07-26T07:56:43.605Z,92.80
2022-07-26T07:59:10.979Z,92.70
2022-07-26T08:01:40.074Z,92.40
2022-07-26T08:04:07.730Z,92.50
2022-07-26T08:06:34.324Z,92.70
2022-07-26T08:09:00.936Z,92.40
2022-07-26T08:11:30.537Z,91.70
2022-07-26T08:14:00.520Z,90.60
2022-07-26T08:16:27.169Z,89.10
2022-07-26T08:18:57.647Z,86.60
2022-07-26T08:21:29.109Z,85.40
2022-07-26T08:23:56.558Z,83.70
2022-07-26T08:26:23.426Z,84.50
2022-07-26T08:28:58.513Z,83.00
2022-07-26T08:31:27.135Z,81.50
2022-07-26T08:33:53.829Z,78.10
2022-07-26T08:36:20.494Z,76.70
2022-07-26T08:38:48.106Z,73.80
2022-07-26T08:41:16.749Z,68.10
2022-07-26T08:43:51.669Z,62.20
2022-07-26T08:46:24.837Z,59.00
2022-07-26T08:48:53.084Z,55.40
2022-07-26T08:51:22.458Z,53.00
2022-07-26T08:53:50.149Z,53.10
2022-07-26T08:56:16.706Z,53.90
2022-07-26T08:58:43.742Z,56.70
2022-07-26T09:01:15.131Z,58.90
2022-07-26T09:03:43.577Z,57.60
2022-07-26T09:06:22.402Z,54.50
2022-07-26T09:08:52.813Z,52.90
2022-07-26T09:11:30.229Z,51.50
2022-07-26T09:14:03.208Z,49.70
2022-07-26T09:16:31.017Z,49.30
2022-07-26T09:19:22.446Z,49.90
2022-07-26T09:21:49.793Z,52.00
2022-07-26T09:24:41.338Z,53.50
2022-07-26T09:27:14.061Z,54.80
2022-07-26T09:29:54.043Z,53.80
2022-07-26T09:32:23.256Z,54.90
2022-07-26T09:34:54.324Z,55.80
2022-07-26T09:37:38.922Z,57.10
2022-07-26T09:40:08.562Z,59.30
2022-07-26T09:42:35.607Z,56.20
2022-07-26T09:45:02.522Z,56.40
2022-07-26T09:47:36.954Z,56.20
2022-07-26T09:50:18.727Z,57.40
2022-07-26T09:53:00.664Z,58.80
2022-07-26T09:55:32.103Z,60.40
2022-07-26T09:58:06.260Z,59.70
2022-07-26T10:00:33.819Z,55.90
2022-07-26T10:03:01.490Z,53.90
2022-07-26T10:05:28.326Z,53.10
2022-07-26T10:07:56.181Z,52.20
2022-07-26T10:10:28.381Z,51.20
2022-07-26T10:12:55.585Z,51.90
2022-07-26T10:15:50.488Z,54.40
2022-07-26T10:18:36.116Z,57.40
2022-07-26T10:21:26.553Z,59.80
2022-07-26T10:24:03.551Z,61.70
2022-07-26T10:26:32.873Z,62.30
2022-07-26T10:29:27.059Z,63.10
2022-07-26T10:32:02.430Z,63.00
2022-07-26T10:34:35.994Z,59.90
2022-07-26T10:37:21.320Z,56.40
2022-07-26T10:39:47.887Z,53.70
2022-07-26T10:42:14.599Z,50.70
2022-07-26T10:44:44.508Z,50.30
2022-07-26T10:47:16.460Z,49.50
2022-07-26T10:49:54.805Z,48.90
2022-07-26T10:52:32.488Z,47.20
2022-07-26T10:54:58.972Z,47.20
2022-07-26T10:57:34.367Z,46.00
2022-07-26T11:00:02.328Z,46.60
2022-07-26T11:02:33.078Z,48.00
2022-07-26T11:05:15.586Z,48.50
2022-07-26T11:08:10.653Z,47.70
2022-07-26T11:10:45.272Z,46.70
2022-07-26T11:13:18.832Z,47.20
2022-07-26T11:15:52.137Z,46.80
2022-07-26T11:18:24.946Z,46.70
2022-07-26T11:20:54.229Z,47.90
2022-07-26T11:23:32.802Z,47.80
2022-07-26T11:26:02.409Z,47.50
2022-07-26T11:28:29.173Z,47.20
2022-07-26T11:31:00.255Z,48.20
2022-07-26T11:33:41.135Z,47.90
2022-07-26T11:36:08.381Z,48.20
2022-07-26T11:39:13.900Z,49.10
2022-07-26T11:41:42.638Z,50.30
2022-07-26T11:44:17.856Z,51.40
2022-07-26T11:46:47.919Z,52.70
2022-07-26T11:49:15.794Z,53.90
2022-07-26T11:51:58.018Z,55.10
2022-07-26T11:54:30.066Z,56.00
2022-07-26T11:57:02.238Z,56.60
2022-07-26T11:59:33.707Z,57.10
2022-07-26T12:02:02.250Z,58.00
2022-07-26T12:04:38.359Z,58.30
2022-07-26T12:07:13.573Z,56.10
2022-07-26T12:09:42.978Z,54.80
2022-07-26T12:12:19.153Z,54.30
2022-07-26T12:15:02.377Z,54.40
2022-07-26T12:17:34.973Z,54.10
2022-07-26T12:20:17.572Z,53.40
2022-07-26T12:22:55.853Z,53.30
2022-07-26T12:25:27.219Z,54.00
2022-07-26T12:27:54.352Z,54.30
2022-07-26T12:30:21.272Z,54.40
2022-07-26T12:32:51.820Z,55.10
2022-07-26T12:35:29.238Z,55.60
2022-07-26T12:37:56.843Z,55.30
2022-07-26T12:40:25.608Z,56.40
2022-07-26T12:42:55.859Z,54.70
2022-07-26T12:45:28.318Z,56.00
2022-07-26T12:47:56.196Z,55.60
2022-07-26T12:50:25.459Z,55.00
2022-07-26T12:52:58.755Z,54.80
2022-07-26T12:55:26.015Z,54.70
2022-07-26T12:57:53.566Z,55.50
2022-07-26T13:00:23.964Z,55.60
2022-07-26T13:02:51.223Z,55.40
2022-07-26T13:05:17.843Z,55.20
2022-07-26T13:07:44.614Z,55.00
2022-07-26T13:12:59.126Z,55.20
2022-07-26T13:15:36.301Z,55.50
2022-07-26T13:18:05.145Z,56.00
2022-07-26T13:20:32.514Z,56.20
2022-07-26T13:22:59.154Z,56.30
2022-07-26T13:25:26.134Z,56.70
2022-07-26T13:27:58.334Z,56.80
2022-07-26T13:30:24.877Z,56.30
2022-07-26T13:32:52.080Z,55.60
2022-07-26T13:35:18.620Z,55.40
2022-07-26T13:37:45.247Z,54.60
2022-07-26T13:40:11.983Z,54.60
2022-07-26T13:42:38.617Z,54.60
2022-07-26T13:45:06.822Z,54.60
2022-07-26T13:47:33.473Z,54.00
2022-07-26T13:50:00.243Z,54.10
2022-07-26T13:52:26.913Z,54.30
2022-07-26T13:54:53.468Z,54.90
2022-07-26T13:57:20.031Z,53.80
2022-07-26T13:59:46.556Z,54.40
2022-07-26T14:02:13.826Z,54.00
2022-07-26T14:04:40.693Z,53.80
2022-07-26T14:07:07.212Z,54.40
2022-07-26T14:09:33.776Z,53.90
2022-07-26T14:12:00.353Z,55.10
2022-07-26T14:14:26.880Z,55.50
2022-07-26T14:16:53.464Z,56.10
2022-07-26T14:19:20.124Z,56.30
2022-07-26T14:22:00.041Z,56.20
2022-07-26T14:24:27.986Z,56.70
2022-07-26T14:26:58.900Z,56.40
2022-07-26T14:29:26.822Z,56.40
2022-07-26T14:31:53.546Z,55.80
2022-07-26T14:34:20.460Z,55.40
2022-07-26T14:36:47.020Z,55.30
2022-07-26T14:39:13.608Z,55.90
2022-07-26T14:41:40.298Z,56.50
2022-07-26T14:44:07.068Z,56.90
2022-07-26T14:46:33.844Z,56.80
2022-07-26T14:49:00.410Z,57.10
2022-07-26T14:51:27.112Z,57.70
2022-07-26T14:53:53.686Z,57.70
2022-07-26T14:56:20.430Z,58.00
2022-07-26T14:58:47.019Z,57.80
2022-07-26T15:01:13.699Z,58.60
2022-07-26T15:03:40.348Z,58.50
2022-07-26T15:06:06.932Z,58.40
2022-07-26T15:08:33.467Z,58.80
2022-07-26T15:11:00.125Z,59.20
2022-07-26T15:13:27.014Z,59.40
2022-07-26T15:15:53.570Z,58.70
2022-07-26T15:18:20.172Z,57.90
2022-07-26T15:20:47.042Z,58.50
2022-07-26T15:23:15.106Z,58.10
2022-07-26T15:25:41.940Z,58.30
2022-07-26T15:28:08.609Z,57.90
2022-07-26T15:30:36.191Z,58.00
2022-07-26T15:33:02.904Z,57.90
2022-07-26T15:35:29.929Z,57.10
2022-07-26T15:37:57.458Z,57.80
2022-07-26T15:40:24.528Z,58.10
2022-07-26T15:42:52.090Z,57.40
2022-07-26T15:45:20.530Z,57.20
2022-07-26T15:48:04.613Z,57.70
2022-07-26T15:50:35.664Z,57.70
2022-07-26T15:53:02.218Z,57.50
2022-07-26T15:55:28.862Z,57.70
2022-07-26T15:57:55.601Z,57.00
2022-07-26T16:00:22.345Z,57.50
2022-07-26T16:02:49.018Z,57.30
2022-07-26T16:05:15.723Z,57.90
2022-07-26T16:07:43.559Z,57.30
2022-07-26T16:10:12.402Z,58.20
2022-07-26T16:12:39.923Z,58.40
2022-07-26T16:15:08.543Z,58.60
2022-07-26T16:17:35.407Z,58.70
2022-07-26T16:20:02.136Z,59.00
2022-07-26T16:22:28.799Z,59.10
2022-07-26T16:24:55.441Z,58.70
2022-07-26T16:27:22.370Z,58.60
2022-07-26T16:29:52.344Z,58.40
2022-07-26T16:32:20.922Z,57.40
2022-07-26T16:34:47.477Z,57.90
2022-07-26T16:37:14.115Z,58.20
2022-07-26T16:39:40.678Z,57.70
2022-07-26T16:42:07.665Z,58.20
2022-07-26T16:44:35.871Z,57.70
2022-07-26T16:47:02.944Z,57.60
2022-07-26T16:49:29.680Z,57.80
2022-07-26T16:51:57.357Z,57.90
2022-07-26T16:54:24.010Z,58.20
2022-07-26T16:56:50.542Z,58.80
2022-07-26T16:59:17.671Z,59.10
2022-07-26T17:01:44.734Z,59.60
2022-07-26T17:04:11.392Z,60.60
2022-07-26T17:06:38.165Z,61.80
2022-07-26T17:09:04.876Z,62.50
2022-07-26T17:11:31.456Z,63.10
2022-07-26T17:13:58.140Z,64.00
2022-07-26T17:16:25.098Z,65.00
2022-07-26T17:18:53.161Z,65.40
2022-07-26T17:21:19.963Z,66.00
2022-07-26T17:23:46.533Z,66.50
2022-07-26T17:26:13.161Z,66.70
2022-07-26T17:28:39.746Z,66.70
2022-07-26T17:31:06.374Z,66.80
2022-07-26T17:33:32.962Z,67.20
2022-07-26T17:36:03.388Z,67.60
2022-07-26T17:38:33.509Z,67.50
2022-07-26T17:41:00.814Z,67.90
2022-07-26T17:43:36.445Z,67.60
2022-07-26T17:46:03.898Z,67.70
2022-07-26T17:48:30.610Z,68.10
2022-07-26T17:50:57.253Z,68.50
2022-07-26T17:53:34.343Z,68.40
2022-07-26T17:56:02.123Z,68.60
2022-07-26T17:58:28.729Z,68.40
2022-07-26T18:00:55.483Z,68.30
2022-07-26T18:03:23.083Z,68.60
2022-07-26T18:05:50.358Z,68.60
2022-07-26T18:08:17.418Z,68.80
2022-07-26T18:10:48.987Z,69.00
2022-07-26T18:13:17.715Z,69.70
2022-07-26T18:15:44.713Z,69.20
2022-07-26T18:18:11.468Z,69.40
2022-07-26T18:20:38.334Z,69.50
2022-07-26T18:23:04.952Z,69.80
2022-07-26T18:25:31.580Z,69.90
2022-07-26T18:28:01.965Z,69.80
2022-07-26T18:30:32.242Z,69.60
2022-07-26T18:32:59.708Z,69.40
2022-07-26T18:35:27.194Z,69.50
2022-07-26T18:37:53.868Z,69.60
2022-07-26T18:40:24.978Z,69.50
2022-07-26T18:42:52.513Z,69.30
2022-07-26T18:45:19.266Z,68.90
2022-07-26T18:47:45.804Z,69.00
2022-07-26T18:50:16.898Z,69.00
2022-07-26T18:52:44.402Z,69.30
2022-07-26T18:55:12.454Z,69.10
2022-07-26T18:57:40.945Z,69.60
2022-07-26T19:00:18.962Z,68.90
2022-07-26T19:02:46.728Z,69.00
2022-07-26T19:05:14.910Z,69.00
2022-07-26T19:07:41.661Z,69.00
2022-07-26T19:10:10.054Z,68.80
2022-07-26T19:12:37.323Z,69.00
2022-07-26T19:15:06.308Z,69.30
2022-07-26T19:17:33.860Z,69.40
2022-07-26T19:20:00.522Z,69.50
2022-07-26T19:22:28.986Z,69.80
2022-07-26T19:24:55.735Z,69.60
2022-07-26T19:27:22.358Z,69.90
2022-07-26T19:29:48.920Z,69.80
2022-07-26T19:32:15.704Z,70.00
2022-07-26T19:34:42.469Z,70.30
2022-07-26T19:37:09.065Z,70.30
2022-07-26T19:39:35.718Z,70.30
2022-07-26T19:42:02.284Z,70.50
2022-07-26T19:44:28.894Z,71.10
2022-07-26T19:46:57.759Z,71.30
2022-07-26T19:49:24.655Z,71.40
2022-07-26T19:51:51.230Z,71.80
2022-07-26T19:54:17.883Z,71.70
2022-07-26T19:56:44.452Z,72.10
2022-07-26T19:59:11.473Z,72.20
2022-07-26T20:01:38.278Z,72.50
2022-07-26T20:04:05.167Z,72.40
2022-07-26T20:06:31.952Z,72.60
2022-07-26T20:08:58.529Z,73.10
2022-07-26T20:11:25.534Z,73.20
2022-07-26T20:13:52.132Z,73.50
2022-07-26T20:16:18.992Z,73.60
2022-07-26T20:18:45.583Z,73.70
2022-07-26T20:21:12.203Z,73.80
2022-07-26T20:23:38.758Z,74.20
2022-07-26T20:26:05.417Z,74.40
2022-07-26T20:28:32.429Z,75.00
2022-07-26T20:30:59.080Z,75.10
2022-07-26T20:33:25.812Z,75.60
2022-07-26T20:35:55.102Z,76.10
2022-07-26T20:38:22.310Z,76.60
2022-07-26T20:40:49.077Z,76.80
2022-07-26T20:43:16.942Z,77.30
2022-07-26T20:45:43.782Z,77.50
2022-07-26T20:48:10.550Z,78.00
2022-07-26T20:50:37.093Z,78.20
2022-07-26T20:53:03.799Z,78.50
2022-07-26T20:55:30.424Z,78.80
2022-07-26T20:57:57.089Z,79.10
2022-07-26T21:00:25.773Z,79.40
2022-07-26T21:02:57.812Z,79.60
2022-07-26T21:05:27.018Z,79.60
2022-07-26T21:07:59.512Z,79.90
2022-07-26T21:10:29.873Z,80.20
2022-07-26T21:13:00.003Z,80.10
2022-07-26T21:15:31.549Z,80.30
2022-07-26T21:17:58.989Z,80.60
2022-07-26T21:20:25.655Z,80.80
2022-07-26T21:22:52.205Z,81.20
2022-07-26T21:25:18.854Z,81.90
2022-07-26T21:27:45.432Z,81.60
2022-07-26T21:30:12.332Z,81.70
2022-07-26T21:32:38.956Z,82.00
2022-07-26T21:35:05.995Z,82.10
2022-07-26T21:37:32.841Z,82.10
2022-07-26T21:40:00.620Z,82.30
2022-07-26T21:42:27.785Z,82.70
2022-07-26T21:44:54.318Z,83.20
2022-07-26T21:47:20.868Z,83.30
2022-07-26T21:49:47.452Z,83.60
2022-07-26T21:52:14.085Z,84.10
2022-07-26T21:54:40.653Z,84.60
2022-07-26T21:57:07.427Z,84.90
2022-07-26T21:59:34.024Z,85.10
2022-07-26T22:02:00.834Z,85.40
2022-07-26T22:04:27.441Z,85.50
2022-07-26T22:06:53.984Z,85.90
2022-07-26T22:09:20.574Z,86.00
2022-07-26T22:11:47.144Z,85.90
2022-07-26T22:14:13.707Z,86.30
2022-07-26T22:16:44.144Z,86.90
2022-07-26T22:19:11.002Z,87.00
2022-07-26T22:21:38.058Z,86.70
2022-07-26T22:24:05.091Z,87.50
2022-07-26T22:26:31.662Z,88.40
2022-07-26T22:28:59.213Z,88.80
2022-07-26T22:31:25.914Z,89.40
2022-07-26T22:33:52.739Z,89.80
2022-07-26T22:36:19.350Z,90.20
2022-07-26T22:38:46.301Z,90.50
2022-07-26T22:41:12.989Z,90.80
2022-07-26T22:43:39.614Z,91.10
2022-07-26T22:46:06.220Z,91.30
2022-07-26T22:48:37.091Z,91.60
2022-07-26T22:51:04.879Z,91.90
2022-07-26T22:53:31.473Z,92.10
2022-07-26T22:55:58.126Z,92.60
2022-07-26T22:58:24.705Z,92.80
2022-07-26T23:00:51.417Z,92.90
2022-07-26T23:03:25.004Z,93.20
2022-07-26T23:05:53.783Z,93.60
2022-07-26T23:08:45.628Z,93.90
2022-07-26T23:11:07.537Z,94.20
2022-07-26T23:13:34.144Z,94.40
2022-07-26T23:16:01.811Z,94.70
2022-07-26T23:18:30.096Z,95.10
2022-07-26T23:20:56.758Z,95.40
2022-07-26T23:23:23.280Z,95.70
2022-07-26T23:25:54.913Z,96.00
2022-07-26T23:28:35.618Z,96.50
2022-07-26T23:31:05.302Z,97.20
2022-07-26T23:33:50.861Z,97.60
2022-07-26T23:36:18.536Z,98.10
2022-07-26T23:38:45.061Z,98.60
2022-07-26T23:41:11.655Z,99.00
2022-07-26T23:43:38.222Z,99.20
2022-07-26T23:46:04.769Z,99.40
2022-07-26T23:48:31.347Z,99.90
2022-07-26T23:50:57.906Z,99.90
2022-07-26T23:53:26.993Z,99.90
2022-07-26T23:55:54.144Z,99.90
2022-07-26T23:58:20.872Z,99.90
